Cape Sakura — 7JHZ — position and weather

sailwx.info

Track history (hours):
 
Tides and Currents Weather Stations Pressure Air Temp Water Temp Dewpoint Dewpoint Depression Visibility Wind Speed Wind Dir Waves Ship Positions

Cape Sakura

Last reported at 2017-Aug-09 17:59 UTC. Time now 2017-Aug-16 23:24 UTC.
Position N 01°16' E 104°12'.

Length 292 m; draft 18.2 m.

Type: Cargo ship. MMSI: 432786000.

Date/timePositionNaut miles runAvg speedWind from/ knotsBaromVisibWave heightAir tempDewpointWater temp
2017-Aug-09 17:59N 01°16' E 104°12'713.1
2017-Aug-09 17:27N 01°15' E 104°05'510.2
2017-Aug-09 17:00N 01°15' E 104°01'2 4.4
2017-Aug-09 16:28N 01°17' E 103°59'0 0.3
2017-Aug-09 15:43N 01°17' E 103°59'0 0.2
2017-Aug-09 15:28N 01°17' E 103°59'0 0.1
2017-Aug-09 14:49N 01°17' E 103°59'0 0.0
2017-Aug-09 13:19N 01°17' E 103°59'0 0.1
2017-Aug-09 12:26N 01°17' E 103°59'0 0.0
2017-Aug-09 11:08N 01°17' E 103°59'0 0.2
2017-Aug-09 10:59N 01°17' E 103°59'0 0.1
2017-Aug-09 09:56N 01°17' E 103°59'0 0.2
2017-Aug-09 09:26N 01°17' E 103°59'0 0.2
2017-Aug-09 08:23N 01°17' E 103°60'0 0.1
2017-Aug-09 07:08N 01°17' E 103°60'0 0.1
2017-Aug-09 06:56N 01°17' E 103°60'0 0.2
2017-Aug-09 06:26N 01°17' E 103°60'0 0.4
2017-Aug-09 05:59N 01°16' E 103°60'3 5.8
2017-Aug-09 05:31N 01°16' E 103°57'2 4.6
2017-Aug-09 05:01N 01°14' E 103°56'3 5.8
2017-Aug-09 04:30N 01°12' E 103°53'3 7.0
2017-Aug-09 04:01N 01°11' E 103°50'4 7.3
2017-Aug-09 03:30N 01°09' E 103°47'4 7.1
2017-Aug-09 03:01N 01°07' E 103°44'4 8.7
2017-Aug-09 02:31N 01°04' E 103°41'4 8.6
2017-Aug-09 02:01N 01°04' E 103°36'510.9
2017-Aug-09 01:31N 01°07' E 103°32'510.4
2017-Aug-09 01:00N 01°10' E 103°28'5 9.5
2017-Aug-09 00:30N 01°13' E 103°23'610.6
2017-Aug-08 23:58N 01°16' E 103°19'  
Track history (hours):
 
Tides and Currents Weather Stations Pressure Air Temp Water Temp Dewpoint Dewpoint Depression Visibility Wind Speed Wind Dir Waves Ship Positions

Cape Sakura

Last reported at 2017-Aug-09 17:59 UTC. Time now 2017-Aug-16 23:24 UTC.
Position N 01°16' E 104°12'.

Length 292 m; draft 18.2 m.

Type: Cargo ship. MMSI: 432786000.

Date/timePositionNaut miles runAvg speedWind from/ knotsBaromVisibWave heightAir tempDewpointWater temp
2017-Aug-09 17:59N 01°16' E 104°12'713.1
2017-Aug-09 17:27N 01°15' E 104°05'510.2
2017-Aug-09 17:00N 01°15' E 104°01'2 4.4
2017-Aug-09 16:28N 01°17' E 103°59'0 0.3
2017-Aug-09 15:43N 01°17' E 103°59'0 0.2
2017-Aug-09 15:28N 01°17' E 103°59'0 0.1
2017-Aug-09 14:49N 01°17' E 103°59'0 0.0
2017-Aug-09 13:19N 01°17' E 103°59'0 0.1
2017-Aug-09 12:26N 01°17' E 103°59'0 0.0
2017-Aug-09 11:08N 01°17' E 103°59'0 0.2
2017-Aug-09 10:59N 01°17' E 103°59'0 0.1
2017-Aug-09 09:56N 01°17' E 103°59'0 0.2
2017-Aug-09 09:26N 01°17' E 103°59'0 0.2
2017-Aug-09 08:23N 01°17' E 103°60'0 0.1
2017-Aug-09 07:08N 01°17' E 103°60'0 0.1
2017-Aug-09 06:56N 01°17' E 103°60'0 0.2
2017-Aug-09 06:26N 01°17' E 103°60'0 0.4
2017-Aug-09 05:59N 01°16' E 103°60'3 5.8
2017-Aug-09 05:31N 01°16' E 103°57'2 4.6
2017-Aug-09 05:01N 01°14' E 103°56'3 5.8
2017-Aug-09 04:30N 01°12' E 103°53'3 7.0
2017-Aug-09 04:01N 01°11' E 103°50'4 7.3
2017-Aug-09 03:30N 01°09' E 103°47'4 7.1
2017-Aug-09 03:01N 01°07' E 103°44'4 8.7
2017-Aug-09 02:31N 01°04' E 103°41'4 8.6
2017-Aug-09 02:01N 01°04' E 103°36'510.9
2017-Aug-09 01:31N 01°07' E 103°32'510.4
2017-Aug-09 01:00N 01°10' E 103°28'5 9.5
2017-Aug-09 00:30N 01°13' E 103°23'610.6
2017-Aug-08 23:58N 01°16' E 103°19'  

Dump ship's entire track history